Quincy, IL (62301)

5:34 PM CST on December 02, 2016 (GMT -0600)
S 28th Street | | Change Station

Elev 610 ft 39.91 °N, 91.37 °W | Updated 5 seconds ago

Mostly Cloudy
Mostly Cloudy
40.5 °F
Feels Like 40 °F
N
0.0
Wind Variable Wind from WNW
Gusts 0.0 mph

Today
High -- | Low -- °F
--% Chance of Precip.
Yesterday
High -- | Low -- °F
Precip. -- in
Pressure 30.31 in
Visibility 10.0 miles
Clouds Mostly Cloudy 3900 ft
Windchill 40 °F
Dew Point 24 °F
Humidity 52%
Rainfall 0.00 in
Snow Depth Not available.
7:09 AM 4:40 PM
Waxing Crescent, 11% visible
METAR KUIN 022254Z AUTO 00000KT 10SM BKN039 06/M01 A3029 RMK AO2 SLP264 T00561006
Pressure 30.31 in
Visibility 10.0 miles
Clouds Mostly Cloudy 3900 ft
Windchill 40 °F
Dew Point 24 °F
Humidity 52%
Rainfall 0.00 in
Snow Depth Not available.
7:09 AM 4:40 PM
Waxing Crescent, 11% visible
METAR KUIN 022254Z AUTO 00000KT 10SM BKN039 06/M01 A3029 RMK AO2 SLP264 T00561006

10-Day Weather Forecast

Almanac

Astronomy

Dec. 02, 2016 Rise Set
Actual Time
Civil Twilight
Nautical Twilight
Astronomical Twilight
Moon
Length of Visible Light
Length of Day
Tomorrow will be .
, % of the Moon is Illuminated

Today's Extremes

State Highs State Lows

Community

WunderPhotos

Upload Photos

1,955,379 photos uploaded!

WunderBlog® & News

Nearby

Air Quality

  Air Quality AQ Index Pollutant
Not available.

Snow Depth

Station Depth Elevation

Earthquake Activity

City Distance Mag. Time & Date
Minimum magnitude displayed is 2.5.

Coastal Water Temperatures

Place Temperature

Stations

Nearby Weather Stations

Station Location Temp. Windchill Dew Point Humidity Wind Precip. Elev Updated Type
                   

Watches & Warnings

There are currently no watches in effect.